createdAt,value
2022-11-27T00:01:27.009Z,6.45
2022-11-27T00:03:54.399Z,6.46
2022-11-27T00:06:23.614Z,6.48
2022-11-27T00:08:50.811Z,6.51
2022-11-27T00:11:22.477Z,6.55
2022-11-27T00:13:50.164Z,6.53
2022-11-27T00:16:18.065Z,6.54
2022-11-27T00:18:45.455Z,6.49
2022-11-27T00:21:26.753Z,6.48
2022-11-27T00:23:54.794Z,6.47
2022-11-27T00:26:22.061Z,6.47
2022-11-27T00:28:49.024Z,6.52
2022-11-27T00:31:22.152Z,6.48
2022-11-27T00:33:48.858Z,6.48
2022-11-27T00:36:17.161Z,6.48
2022-11-27T00:38:43.833Z,6.49
2022-11-27T00:41:22.205Z,6.50
2022-11-27T00:43:49.276Z,6.49
2022-11-27T00:46:17.337Z,6.49
2022-11-27T00:48:44.373Z,6.51
2022-11-27T00:51:13.761Z,6.49
2022-11-27T00:53:40.876Z,6.49
2022-11-27T00:56:07.959Z,6.48
2022-11-27T00:58:34.550Z,6.47
2022-11-27T01:01:05.963Z,6.50
2022-11-27T01:03:32.937Z,6.47
2022-11-27T01:06:04.537Z,6.48
2022-11-27T01:08:31.938Z,6.47
2022-11-27T01:10:58.945Z,6.47
2022-11-27T01:13:27.194Z,6.47
2022-11-27T01:16:18.069Z,6.48
2022-11-27T01:18:45.764Z,6.48
2022-11-27T01:21:13.905Z,6.47
2022-11-27T01:23:40.906Z,6.47
2022-11-27T01:26:09.140Z,6.48
2022-11-27T01:28:36.571Z,6.47
2022-11-27T01:31:09.042Z,6.48
2022-11-27T01:33:36.325Z,6.48
2022-11-27T01:36:05.557Z,6.46
2022-11-27T01:38:32.784Z,6.47
2022-11-27T01:41:01.660Z,6.47
2022-11-27T01:43:46.344Z,6.47
2022-11-27T01:46:22.023Z,6.44
2022-11-27T01:48:48.856Z,6.43
2022-11-27T01:51:16.122Z,6.47
2022-11-27T01:53:42.942Z,6.47
2022-11-27T01:56:09.713Z,6.47
2022-11-27T01:58:36.562Z,6.48
2022-11-27T02:01:04.675Z,6.47
2022-11-27T02:03:31.830Z,6.47
2022-11-27T02:05:58.438Z,6.49
2022-11-27T02:08:25.305Z,6.45
2022-11-27T02:11:03.907Z,6.46
2022-11-27T02:13:39.732Z,6.44
2022-11-27T02:16:28.328Z,6.41
2022-11-27T02:19:26.788Z,6.42
2022-11-27T02:22:00.725Z,6.41
2022-11-27T02:24:33.459Z,6.41
2022-11-27T02:27:25.214Z,6.41
2022-11-27T02:29:55.493Z,6.43
2022-11-27T02:32:32.401Z,6.40
2022-11-27T02:35:08.959Z,6.41
2022-11-27T02:37:40.504Z,6.41
2022-11-27T02:40:26.152Z,6.58
2022-11-27T02:43:15.003Z,6.57
2022-11-27T02:45:44.546Z,6.46
2022-11-27T02:48:13.222Z,6.49
2022-11-27T02:50:41.068Z,6.55
2022-11-27T02:53:15.340Z,6.45
2022-11-27T02:55:41.913Z,6.45
2022-11-27T02:58:11.004Z,6.42
2022-11-27T03:00:38.397Z,6.44
2022-11-27T03:03:07.415Z,6.41
2022-11-27T03:05:36.950Z,6.40
2022-11-27T03:08:23.787Z,6.45
2022-11-27T03:10:58.035Z,6.46
2022-11-27T03:13:24.987Z,6.44
2022-11-27T03:16:12.143Z,6.36
2022-11-27T03:18:56.699Z,6.40
2022-11-27T03:21:31.048Z,6.39
2022-11-27T03:23:58.108Z,6.37
2022-11-27T03:26:25.555Z,6.43
2022-11-27T03:28:53.945Z,6.52
2022-11-27T03:31:21.534Z,6.47
2022-11-27T03:33:48.231Z,6.42
2022-11-27T03:36:17.392Z,6.47
2022-11-27T03:38:45.371Z,6.39
2022-11-27T03:41:24.781Z,6.41
2022-11-27T03:44:26.678Z,6.37
2022-11-27T03:46:56.829Z,6.34
2022-11-27T03:50:05.257Z,6.29
2022-11-27T03:53:13.368Z,6.27
2022-11-27T03:55:46.960Z,6.25
2022-11-27T03:58:22.439Z,6.23
2022-11-27T04:00:50.371Z,6.20
2022-11-27T04:03:23.772Z,6.20
2022-11-27T04:05:50.419Z,6.24
2022-11-27T04:08:17.110Z,6.18
2022-11-27T04:10:43.772Z,6.18
2022-11-27T04:13:10.412Z,6.19
2022-11-27T04:15:37.073Z,6.14
2022-11-27T04:18:03.901Z,6.13
2022-11-27T04:20:30.551Z,6.13
2022-11-27T04:22:57.614Z,6.29
2022-11-27T04:25:24.290Z,6.18
2022-11-27T04:27:51.345Z,6.23
2022-11-27T04:30:18.572Z,6.13
2022-11-27T04:32:45.289Z,6.10
2022-11-27T04:35:12.005Z,6.15
2022-11-27T04:37:38.620Z,6.10
2022-11-27T04:40:06.488Z,6.09
2022-11-27T04:42:33.232Z,6.07
2022-11-27T04:44:59.845Z,6.10
2022-11-27T04:47:26.516Z,6.13
2022-11-27T04:49:53.154Z,6.10
2022-11-27T04:52:19.784Z,6.03
2022-11-27T04:54:46.446Z,6.03
2022-11-27T04:57:13.075Z,5.97
2022-11-27T04:59:39.689Z,5.96
2022-11-27T05:02:06.556Z,5.93
2022-11-27T05:04:33.301Z,5.92
2022-11-27T05:06:59.914Z,5.87
2022-11-27T05:09:26.592Z,5.96
2022-11-27T05:11:53.221Z,5.90
2022-11-27T05:14:21.840Z,5.84
2022-11-27T05:16:50.590Z,5.83
2022-11-27T05:19:18.699Z,5.81
2022-11-27T05:21:46.119Z,5.80
2022-11-27T05:24:13.776Z,5.83
2022-11-27T05:26:40.854Z,5.87
2022-11-27T05:29:08.258Z,5.91
2022-11-27T05:31:35.196Z,5.90
2022-11-27T05:34:02.231Z,5.83
2022-11-27T05:36:29.572Z,5.88
2022-11-27T05:38:56.552Z,5.84
2022-11-27T05:41:23.676Z,5.89
2022-11-27T05:43:50.285Z,5.89
2022-11-27T05:46:18.969Z,6.02
2022-11-27T05:48:45.643Z,5.89
2022-11-27T05:51:12.357Z,5.89
2022-11-27T05:53:39.293Z,5.84
2022-11-27T05:56:12.182Z,5.83
2022-11-27T05:58:39.822Z,5.83
2022-11-27T06:01:07.035Z,5.85
2022-11-27T06:03:33.898Z,5.89
2022-11-27T06:06:06.660Z,5.82
2022-11-27T06:08:33.420Z,5.82
2022-11-27T06:11:00.026Z,5.77
2022-11-27T06:13:26.643Z,5.77
2022-11-27T06:15:53.241Z,5.74
2022-11-27T06:18:19.909Z,5.74
2022-11-27T06:20:52.760Z,5.72
2022-11-27T06:23:19.828Z,5.71
2022-11-27T06:25:46.526Z,5.71
2022-11-27T06:28:13.247Z,5.82
2022-11-27T06:30:39.814Z,5.85
2022-11-27T06:33:06.499Z,5.81
2022-11-27T06:35:33.120Z,5.83
2022-11-27T06:37:59.742Z,5.88
2022-11-27T06:40:26.362Z,5.99
2022-11-27T06:42:53.140Z,5.92
2022-11-27T06:45:19.756Z,5.95
2022-11-27T06:47:46.386Z,6.05
2022-11-27T06:50:13.232Z,6.01
2022-11-27T06:52:40.799Z,6.01
2022-11-27T06:55:08.052Z,5.95
2022-11-27T06:57:34.647Z,5.95
2022-11-27T07:00:01.418Z,5.92
2022-11-27T07:02:28.563Z,5.92
2022-11-27T07:04:55.343Z,5.93
2022-11-27T07:07:22.212Z,5.97
2022-11-27T07:09:49.062Z,5.93
2022-11-27T07:12:15.850Z,5.92
2022-11-27T07:14:42.760Z,5.89
2022-11-27T07:17:09.503Z,5.88
2022-11-27T07:19:36.210Z,5.90
2022-11-27T07:22:03.007Z,5.98
2022-11-27T07:24:29.720Z,5.93
2022-11-27T07:26:56.443Z,6.02
2022-11-27T07:29:23.275Z,6.01
2022-11-27T07:31:51.498Z,5.97
2022-11-27T07:34:21.657Z,6.05
2022-11-27T07:36:48.868Z,6.01
2022-11-27T07:39:25.171Z,6.04
2022-11-27T07:41:59.804Z,6.04
2022-11-27T07:44:26.788Z,6.03
2022-11-27T07:46:53.427Z,6.12
2022-11-27T07:49:23.728Z,6.01
2022-11-27T07:51:50.519Z,6.02
2022-11-27T07:54:17.149Z,6.05
2022-11-27T07:56:43.868Z,6.09
2022-11-27T07:59:10.582Z,6.15
2022-11-27T08:01:37.422Z,6.05
2022-11-27T08:04:04.172Z,6.02
2022-11-27T08:06:30.997Z,5.92
2022-11-27T08:08:57.812Z,5.86
2022-11-27T08:11:27.390Z,5.81
2022-11-27T08:13:59.611Z,5.85
2022-11-27T08:16:27.001Z,5.82
2022-11-27T08:18:54.053Z,5.74
2022-11-27T08:21:20.858Z,5.62
2022-11-27T08:23:47.758Z,5.64
2022-11-27T08:26:14.859Z,5.53
2022-11-27T08:28:42.369Z,5.47
2022-11-27T08:31:10.923Z,5.46
2022-11-27T08:33:38.108Z,5.43
2022-11-27T08:36:08.106Z,5.46
2022-11-27T08:38:35.916Z,5.42
2022-11-27T08:41:04.863Z,5.46
2022-11-27T08:43:32.259Z,5.49
2022-11-27T08:45:59.031Z,5.54
2022-11-27T08:48:26.067Z,5.61
2022-11-27T08:50:52.970Z,5.74
2022-11-27T08:53:19.998Z,5.77
2022-11-27T08:55:46.730Z,5.90
2022-11-27T08:58:13.804Z,6.05
2022-11-27T09:00:41.351Z,5.95
2022-11-27T09:03:10.444Z,5.98
2022-11-27T09:05:37.326Z,5.97
2022-11-27T09:08:05.533Z,6.19
2022-11-27T09:10:32.552Z,6.17
2022-11-27T09:12:59.693Z,6.14
2022-11-27T09:15:26.513Z,6.26
2022-11-27T09:17:53.378Z,6.36
2022-11-27T09:20:20.256Z,6.39
2022-11-27T09:22:47.099Z,6.34
2022-11-27T09:25:13.846Z,6.41
2022-11-27T09:27:40.535Z,6.47
2022-11-27T09:30:08.063Z,6.49
2022-11-27T09:32:35.099Z,6.55
2022-11-27T09:35:01.752Z,6.62
2022-11-27T09:37:28.414Z,6.61
2022-11-27T09:39:55.733Z,6.59
2022-11-27T09:42:59.797Z,6.61
2022-11-27T09:45:27.225Z,6.63
2022-11-27T09:47:57.211Z,6.69
2022-11-27T09:50:41.701Z,6.73
2022-11-27T09:53:26.895Z,6.79
2022-11-27T09:55:54.904Z,6.74
2022-11-27T09:58:40.127Z,6.72
2022-11-27T10:01:15.377Z,6.66
2022-11-27T10:03:43.158Z,6.70
2022-11-27T10:06:26.216Z,6.58
2022-11-27T10:09:00.173Z,6.44
2022-11-27T10:11:32.096Z,6.58
2022-11-27T10:14:25.087Z,6.68
2022-11-27T10:17:12.768Z,6.60
2022-11-27T10:19:47.690Z,6.57
2022-11-27T10:22:44.260Z,6.52
2022-11-27T10:25:22.061Z,6.64
2022-11-27T10:28:01.421Z,6.70
2022-11-27T10:30:29.819Z,6.80
2022-11-27T10:32:59.056Z,6.83
2022-11-27T10:35:28.346Z,7.02
2022-11-27T10:38:07.472Z,7.17
2022-11-27T10:40:38.679Z,7.32
2022-11-27T10:43:18.063Z,7.41
2022-11-27T10:45:49.253Z,7.56
2022-11-27T10:48:16.088Z,7.62
2022-11-27T10:50:43.465Z,7.82
2022-11-27T10:53:35.237Z,7.93
2022-11-27T10:56:04.832Z,7.96
2022-11-27T10:58:42.034Z,8.08
2022-11-27T11:01:11.585Z,8.10
2022-11-27T11:03:38.336Z,8.18
2022-11-27T11:06:23.710Z,8.29
2022-11-27T11:09:05.390Z,8.41
2022-11-27T11:11:32.017Z,8.39
2022-11-27T11:13:58.660Z,8.43
2022-11-27T11:16:34.771Z,8.51
2022-11-27T11:19:02.850Z,8.50
2022-11-27T11:21:35.407Z,8.43
2022-11-27T11:24:07.418Z,8.47
2022-11-27T11:26:37.565Z,8.42
2022-11-27T11:29:07.284Z,8.38
2022-11-27T11:31:38.698Z,8.36
2022-11-27T11:34:18.841Z,8.26
2022-11-27T11:37:00.756Z,8.10
2022-11-27T11:39:30.162Z,7.90
2022-11-27T11:41:57.301Z,7.85
2022-11-27T11:44:31.123Z,7.74
2022-11-27T11:46:57.693Z,7.72
2022-11-27T11:49:26.484Z,7.74
2022-11-27T11:52:12.636Z,7.79
2022-11-27T11:54:50.223Z,7.83
2022-11-27T11:57:40.939Z,7.89
2022-11-27T12:00:14.664Z,7.84
2022-11-27T12:03:02.126Z,7.85
2022-11-27T12:05:37.472Z,7.78
2022-11-27T12:08:31.891Z,7.79
2022-11-27T12:11:09.445Z,7.73
2022-11-27T12:13:46.067Z,7.71
2022-11-27T12:16:33.939Z,7.63
2022-11-27T12:19:22.309Z,7.69
2022-11-27T12:22:00.079Z,7.63
2022-11-27T12:24:44.924Z,7.63
2022-11-27T12:27:27.409Z,7.52
2022-11-27T12:30:06.563Z,7.47
2022-11-27T12:32:54.317Z,7.54
2022-11-27T12:35:39.607Z,7.53
2022-11-27T12:38:28.710Z,7.53
2022-11-27T12:41:16.065Z,7.49
2022-11-27T12:43:48.049Z,7.49
2022-11-27T12:46:26.756Z,7.57
2022-11-27T12:48:58.132Z,7.52
2022-11-27T12:51:30.035Z,7.43
2022-11-27T12:54:06.304Z,7.44
2022-11-27T12:56:40.654Z,7.46
2022-11-27T12:59:25.886Z,7.44
2022-11-27T13:01:59.581Z,7.40
2022-11-27T13:04:33.166Z,7.41
2022-11-27T13:07:13.721Z,7.37
2022-11-27T13:10:03.580Z,7.20
2022-11-27T13:12:34.520Z,7.12
2022-11-27T13:15:06.819Z,7.07
2022-11-27T13:17:42.772Z,7.03
2022-11-27T13:20:16.548Z,7.02
2022-11-27T13:22:43.640Z,6.89
2022-11-27T13:25:14.647Z,6.83
2022-11-27T13:27:44.784Z,6.89
2022-11-27T13:30:32.752Z,6.86
2022-11-27T13:33:03.744Z,6.69
2022-11-27T13:35:43.372Z,6.65
2022-11-27T13:38:24.814Z,6.57
2022-11-27T13:40:53.035Z,6.56
2022-11-27T13:43:19.571Z,6.44
2022-11-27T13:45:46.470Z,6.52
2022-11-27T13:48:27.134Z,6.41
2022-11-27T13:50:54.412Z,6.33
2022-11-27T13:53:34.253Z,6.41
2022-11-27T13:56:00.879Z,6.32
2022-11-27T13:58:38.832Z,6.30
2022-11-27T14:01:13.251Z,6.30
2022-11-27T14:03:40.102Z,6.19
2022-11-27T14:06:28.249Z,6.06
2022-11-27T14:08:58.250Z,6.00
2022-11-27T14:11:40.262Z,5.87
2022-11-27T14:14:24.214Z,6.00
2022-11-27T14:16:59.274Z,5.82
2022-11-27T14:19:34.616Z,5.75
2022-11-27T14:22:02.202Z,5.69
2022-11-27T14:24:29.866Z,5.72
2022-11-27T14:26:56.889Z,5.67
2022-11-27T14:29:24.403Z,5.46
2022-11-27T14:31:58.897Z,5.36
2022-11-27T14:34:33.155Z,5.24
2022-11-27T14:36:59.977Z,5.15
2022-11-27T14:39:37.412Z,5.29
2022-11-27T14:42:17.460Z,5.11
2022-11-27T14:44:44.230Z,5.17
2022-11-27T14:47:18.793Z,5.06
2022-11-27T14:49:45.561Z,4.96
2022-11-27T14:52:15.101Z,4.87
2022-11-27T14:54:42.111Z,4.81
2022-11-27T14:57:15.252Z,4.76
2022-11-27T14:59:44.806Z,4.56
2022-11-27T15:02:11.428Z,4.58
2022-11-27T15:04:40.768Z,4.51
2022-11-27T15:07:18.929Z,4.47
2022-11-27T15:09:50.773Z,4.38
2022-11-27T15:12:34.619Z,4.29
2022-11-27T15:15:19.938Z,4.29
2022-11-27T15:17:49.607Z,4.24
2022-11-27T15:20:24.243Z,4.05
2022-11-27T15:22:52.419Z,4.02
2022-11-27T15:25:29.205Z,4.06
2022-11-27T15:27:55.825Z,3.96
2022-11-27T15:30:22.583Z,4.03
2022-11-27T15:32:51.559Z,4.01
2022-11-27T15:35:21.370Z,3.95
2022-11-27T15:37:48.102Z,4.02
2022-11-27T15:40:38.135Z,3.80
2022-11-27T15:43:15.759Z,3.73
2022-11-27T15:45:43.627Z,3.61
2022-11-27T15:48:18.177Z,3.64
2022-11-27T15:50:51.471Z,3.60
2022-11-27T15:53:18.624Z,3.52
2022-11-27T15:55:47.500Z,3.58
2022-11-27T15:58:14.248Z,3.62
2022-11-27T16:00:40.947Z,3.56
2022-11-27T16:03:07.641Z,3.53
2022-11-27T16:05:34.439Z,3.61
2022-11-27T16:08:02.231Z,3.66
2022-11-27T16:10:28.869Z,3.57
2022-11-27T16:12:57.564Z,3.52
2022-11-27T16:15:26.664Z,3.55
2022-11-27T16:17:56.823Z,3.37
2022-11-27T16:20:23.485Z,3.63
2022-11-27T16:22:50.089Z,3.56
2022-11-27T16:25:16.795Z,3.44
2022-11-27T16:27:43.400Z,3.35
2022-11-27T16:30:10.584Z,3.44
2022-11-27T16:32:38.963Z,3.64
2022-11-27T16:35:06.674Z,3.49
2022-11-27T16:37:33.280Z,3.56
2022-11-27T16:39:59.852Z,3.63
2022-11-27T16:42:26.461Z,3.64
2022-11-27T16:44:53.151Z,3.48
2022-11-27T16:47:19.835Z,3.44
2022-11-27T16:49:50.183Z,3.54
2022-11-27T16:52:17.138Z,3.48
2022-11-27T16:54:46.564Z,3.59
2022-11-27T16:57:13.246Z,3.54
2022-11-27T16:59:39.826Z,3.45
2022-11-27T17:02:06.727Z,3.54
2022-11-27T17:04:33.975Z,3.52
2022-11-27T17:07:03.965Z,3.47
2022-11-27T17:09:31.253Z,3.45
2022-11-27T17:11:57.896Z,3.36
2022-11-27T17:14:26.973Z,3.47
2022-11-27T17:16:53.684Z,3.27
2022-11-27T17:19:24.702Z,3.35
2022-11-27T17:21:51.339Z,3.14
2022-11-27T17:24:18.140Z,3.30
2022-11-27T17:26:45.777Z,3.29
2022-11-27T17:29:13.626Z,3.31
2022-11-27T17:31:42.114Z,3.27
2022-11-27T17:34:11.591Z,3.22
2022-11-27T17:36:38.847Z,3.06
2022-11-27T17:39:06.037Z,3.17
2022-11-27T17:41:33.389Z,3.30
2022-11-27T17:44:00.498Z,3.38
2022-11-27T17:46:28.689Z,3.36
2022-11-27T17:48:57.982Z,3.27
2022-11-27T17:51:25.071Z,3.23
2022-11-27T17:54:10.757Z,3.26
2022-11-27T17:56:37.418Z,3.61
2022-11-27T17:59:04.212Z,3.57
2022-11-27T18:01:31.298Z,3.63
2022-11-27T18:04:07.164Z,3.55
2022-11-27T18:06:36.418Z,3.58
2022-11-27T18:09:05.562Z,3.58
2022-11-27T18:11:36.865Z,3.66
2022-11-27T18:14:04.236Z,3.65
2022-11-27T18:16:36.811Z,3.78
2022-11-27T18:19:06.196Z,3.79
2022-11-27T18:21:33.105Z,3.98
2022-11-27T18:24:22.600Z,3.92
2022-11-27T18:27:07.792Z,3.78
2022-11-27T18:29:40.084Z,3.72
2022-11-27T18:32:07.058Z,3.72
2022-11-27T18:34:33.795Z,3.80
2022-11-27T18:37:01.745Z,3.83
2022-11-27T18:39:28.362Z,3.87
2022-11-27T18:41:54.943Z,3.97
2022-11-27T18:44:24.523Z,3.89
2022-11-27T18:46:51.334Z,3.83
2022-11-27T18:49:17.921Z,3.86
2022-11-27T18:51:45.049Z,3.81
2022-11-27T18:54:11.748Z,3.83
2022-11-27T18:56:38.399Z,3.78
2022-11-27T18:59:05.896Z,3.85
2022-11-27T19:01:39.683Z,3.83
2022-11-27T19:04:07.933Z,3.89
2022-11-27T19:06:35.352Z,3.79
2022-11-27T19:09:02.122Z,3.77
2022-11-27T19:11:35.281Z,3.91
2022-11-27T19:14:02.205Z,3.77
2022-11-27T19:16:31.547Z,3.89
2022-11-27T19:18:59.490Z,3.90
2022-11-27T19:21:33.240Z,3.91
2022-11-27T19:24:01.234Z,3.99
2022-11-27T19:26:30.960Z,4.03
2022-11-27T19:28:59.651Z,4.05
2022-11-27T19:31:26.950Z,4.00
2022-11-27T19:33:55.454Z,4.05
2022-11-27T19:36:22.837Z,4.04
2022-11-27T19:38:54.669Z,4.10
2022-11-27T19:41:21.270Z,4.05
2022-11-27T19:43:48.047Z,4.02
2022-11-27T19:46:26.945Z,4.05
2022-11-27T19:48:58.143Z,4.15
2022-11-27T19:51:25.935Z,4.13
2022-11-27T19:53:52.682Z,4.03
2022-11-27T19:56:19.596Z,4.03
2022-11-27T19:58:46.217Z,4.16
2022-11-27T20:01:15.848Z,4.02
2022-11-27T20:03:42.994Z,4.09
2022-11-27T20:06:14.250Z,4.12
2022-11-27T20:08:42.853Z,4.18
2022-11-27T20:11:12.130Z,4.16
2022-11-27T20:13:38.771Z,4.14
2022-11-27T20:16:09.674Z,4.09
2022-11-27T20:18:36.519Z,4.11
2022-11-27T20:21:11.600Z,4.09
2022-11-27T20:23:39.250Z,4.04
2022-11-27T20:26:07.370Z,4.06
2022-11-27T20:28:34.376Z,4.10
2022-11-27T20:31:02.991Z,4.15
2022-11-27T20:33:31.372Z,4.08
2022-11-27T20:35:58.420Z,4.09
2022-11-27T20:38:26.554Z,4.09
2022-11-27T20:40:53.273Z,3.87
2022-11-27T20:43:19.995Z,4.11
2022-11-27T20:45:46.638Z,3.95
2022-11-27T20:48:13.405Z,4.05
2022-11-27T20:50:40.079Z,4.00
2022-11-27T20:53:06.887Z,4.05
2022-11-27T20:55:34.540Z,3.98
2022-11-27T20:58:01.221Z,4.00
2022-11-27T21:00:28.001Z,3.94
2022-11-27T21:02:54.696Z,3.89
2022-11-27T21:05:21.340Z,3.89
2022-11-27T21:07:47.972Z,3.88
2022-11-27T21:10:16.676Z,3.94
2022-11-27T21:12:43.891Z,3.92
2022-11-27T21:15:13.101Z,3.98
2022-11-27T21:17:40.877Z,3.95
2022-11-27T21:20:08.189Z,3.91
2022-11-27T21:22:34.838Z,3.81
2022-11-27T21:25:01.591Z,3.91
2022-11-27T21:27:28.888Z,3.92
2022-11-27T21:29:55.585Z,3.85
2022-11-27T21:32:23.255Z,3.85
2022-11-27T21:34:50.202Z,3.84
2022-11-27T21:37:17.219Z,3.87
2022-11-27T21:39:44.935Z,3.79
2022-11-27T21:42:11.794Z,3.82
2022-11-27T21:44:42.320Z,3.77
2022-11-27T21:47:12.628Z,3.78
2022-11-27T21:49:40.536Z,3.88
2022-11-27T21:52:08.962Z,3.70
2022-11-27T21:54:37.134Z,3.72
2022-11-27T21:57:03.947Z,3.87
2022-11-27T21:59:30.997Z,3.80
2022-11-27T22:01:59.702Z,3.80
2022-11-27T22:04:26.667Z,3.82
2022-11-27T22:06:54.048Z,3.75
2022-11-27T22:09:23.158Z,3.62
2022-11-27T22:11:52.332Z,3.68
2022-11-27T22:14:19.619Z,3.72
2022-11-27T22:16:47.073Z,3.74
2022-11-27T22:19:15.380Z,3.78
2022-11-27T22:21:43.903Z,3.82
2022-11-27T22:24:15.040Z,3.66
2022-11-27T22:26:47.691Z,3.73
2022-11-27T22:29:14.522Z,3.80
2022-11-27T22:31:41.488Z,3.75
2022-11-27T22:34:08.448Z,3.68
2022-11-27T22:36:37.339Z,3.68
2022-11-27T22:39:06.582Z,3.59
2022-11-27T22:41:36.583Z,3.62
2022-11-27T22:44:08.925Z,3.56
2022-11-27T22:46:36.845Z,3.58
2022-11-27T22:49:05.938Z,3.47
2022-11-27T22:51:34.633Z,3.59
2022-11-27T22:54:02.509Z,3.59
2022-11-27T22:56:29.322Z,3.57
2022-11-27T22:59:17.549Z,3.43
2022-11-27T23:01:43.486Z,3.52
2022-11-27T23:04:10.073Z,3.51
2022-11-27T23:06:37.083Z,3.49
2022-11-27T23:09:04.058Z,3.56
2022-11-27T23:11:30.737Z,3.53
2022-11-27T23:13:58.198Z,3.61
2022-11-27T23:16:24.939Z,3.52
2022-11-27T23:18:51.749Z,3.55
2022-11-27T23:21:20.230Z,3.48
2022-11-27T23:23:47.050Z,3.48
2022-11-27T23:26:18.199Z,3.65
2022-11-27T23:28:52.109Z,3.54
2022-11-27T23:31:29.952Z,3.51
2022-11-27T23:33:58.594Z,3.56
2022-11-27T23:36:25.426Z,3.49
2022-11-27T23:38:52.026Z,3.46
2022-11-27T23:41:24.206Z,3.57
2022-11-27T23:43:51.827Z,3.49
2022-11-27T23:46:20.587Z,3.50
2022-11-27T23:48:47.341Z,3.43
2022-11-27T23:51:15.325Z,3.47
2022-11-27T23:53:42.094Z,3.29
2022-11-27T23:56:11.404Z,3.43
2022-11-27T23:58:41.126Z,3.35
